createdAt,value
2022-10-18T00:00:02.096Z,37.95
2022-10-18T00:02:28.925Z,40.40
2022-10-18T00:04:55.757Z,38.50
2022-10-18T00:07:22.483Z,39.90
2022-10-18T00:09:49.205Z,46.50
2022-10-18T00:12:15.992Z,39.25
2022-10-18T00:14:42.781Z,37.50
2022-10-18T00:17:09.887Z,36.70
2022-10-18T00:19:36.599Z,40.00
2022-10-18T00:22:03.342Z,39.90
2022-10-18T00:24:30.049Z,37.25
2022-10-18T00:26:56.828Z,34.55
2022-10-18T00:29:23.538Z,36.38
2022-10-18T00:31:50.288Z,34.35
2022-10-18T00:34:17.245Z,33.67
2022-10-18T00:36:44.755Z,36.58
2022-10-18T00:39:19.023Z,34.75
2022-10-18T00:41:46.188Z,33.40
2022-10-18T00:44:12.850Z,32.85
2022-10-18T00:49:18.130Z,31.80
2022-10-18T00:52:04.561Z,32.05
2022-10-18T00:54:33.539Z,35.00
2022-10-18T00:57:01.586Z,31.20
2022-10-18T00:59:31.406Z,32.42
2022-10-18T01:01:58.162Z,30.98
2022-10-18T01:04:25.313Z,34.10
2022-10-18T01:07:27.358Z,33.97
2022-10-18T01:10:27.913Z,31.40
2022-10-18T01:12:57.508Z,31.48
2022-10-18T01:15:30.889Z,35.33
2022-10-18T01:18:44.780Z,32.55
2022-10-18T01:21:34.354Z,37.05
2022-10-18T01:24:35.737Z,37.65
2022-10-18T01:27:15.932Z,39.78
2022-10-18T01:29:45.757Z,36.75
2022-10-18T01:32:26.992Z,34.28
2022-10-18T01:34:59.672Z,39.65
2022-10-18T01:37:29.304Z,38.95
2022-10-18T01:39:58.379Z,36.03
2022-10-18T01:42:25.809Z,35.10
2022-10-18T01:44:53.663Z,37.53
2022-10-18T01:47:21.567Z,36.97
2022-10-18T01:49:48.371Z,36.45
2022-10-18T01:52:17.456Z,34.88
2022-10-18T01:54:49.122Z,37.17
2022-10-18T01:57:36.808Z,34.38
2022-10-18T02:00:14.829Z,34.50
2022-10-18T02:02:59.674Z,36.15
2022-10-18T02:05:59.848Z,33.60
2022-10-18T02:08:42.844Z,38.80
2022-10-18T02:11:12.977Z,33.17
2022-10-18T02:14:12.093Z,31.33
2022-10-18T02:16:54.647Z,32.15
2022-10-18T02:19:40.449Z,33.63
2022-10-18T02:22:10.465Z,32.80
2022-10-18T02:24:42.194Z,32.35
2022-10-18T02:27:09.610Z,30.42
2022-10-18T02:29:36.684Z,30.30
2022-10-18T02:32:11.338Z,33.65
2022-10-18T02:34:49.248Z,30.65
2022-10-18T02:37:20.318Z,32.67
2022-10-18T02:39:50.811Z,36.35
2022-10-18T02:42:17.706Z,30.60
2022-10-18T02:44:44.438Z,31.27
2022-10-18T02:47:12.142Z,32.85
2022-10-18T02:49:38.877Z,33.92
2022-10-18T02:52:05.646Z,30.05
2022-10-18T02:54:32.440Z,30.02
2022-10-18T02:57:00.586Z,32.05
2022-10-18T02:59:27.276Z,31.80
2022-10-18T03:04:20.874Z,29.60
2022-10-18T03:06:47.623Z,31.55
2022-10-18T03:09:14.383Z,31.17
2022-10-18T03:11:42.360Z,31.45
2022-10-18T03:14:09.032Z,30.80
2022-10-18T03:16:35.828Z,30.45
2022-10-18T03:19:02.649Z,29.02
2022-10-18T03:21:29.396Z,31.60
2022-10-18T03:23:56.273Z,29.92
2022-10-18T03:26:23.010Z,28.90
2022-10-18T03:28:49.759Z,30.02
2022-10-18T03:31:16.502Z,29.70
2022-10-18T03:33:43.335Z,28.17
2022-10-18T03:36:10.239Z,26.75
2022-10-18T03:38:37.006Z,27.38
2022-10-18T03:41:04.398Z,28.38
2022-10-18T03:43:31.304Z,29.52
2022-10-18T03:45:58.242Z,28.40
2022-10-18T03:48:25.064Z,26.33
2022-10-18T03:50:51.753Z,28.02
2022-10-18T03:53:18.508Z,31.90
2022-10-18T03:55:45.213Z,30.13
2022-10-18T03:58:11.940Z,28.15
2022-10-18T04:00:38.625Z,29.25
2022-10-18T04:03:05.400Z,27.73
2022-10-18T04:05:32.184Z,31.10
2022-10-18T04:07:58.924Z,31.20
2022-10-18T04:10:25.877Z,30.83
2022-10-18T04:12:52.711Z,31.55
2022-10-18T04:15:19.792Z,29.10
2022-10-18T04:17:46.713Z,29.17
2022-10-18T04:20:13.874Z,30.35
2022-10-18T04:22:40.656Z,30.45
2022-10-18T04:25:07.640Z,29.95
2022-10-18T04:27:34.776Z,32.70
2022-10-18T04:30:01.614Z,31.48
2022-10-18T04:34:56.131Z,27.83
2022-10-18T04:37:22.943Z,30.60
2022-10-18T04:39:52.645Z,27.42
2022-10-18T04:42:21.220Z,30.42
2022-10-18T04:44:48.067Z,30.05
2022-10-18T04:47:15.006Z,31.23
2022-10-18T04:49:42.029Z,28.80
2022-10-18T04:52:09.150Z,29.98
2022-10-18T04:54:36.047Z,29.77
2022-10-18T04:57:02.924Z,29.50
2022-10-18T04:59:32.536Z,28.88
2022-10-18T05:01:59.380Z,35.67
2022-10-18T05:04:26.195Z,28.15
2022-10-18T05:06:52.975Z,31.42
2022-10-18T05:09:22.223Z,27.80
2022-10-18T05:11:48.916Z,31.48
2022-10-18T05:14:16.149Z,29.05
2022-10-18T05:16:42.922Z,28.88
2022-10-18T05:19:10.505Z,30.95
2022-10-18T05:21:37.228Z,34.05
2022-10-18T05:24:04.214Z,32.53
2022-10-18T05:26:31.038Z,27.92
2022-10-18T05:28:57.857Z,28.13
2022-10-18T05:31:24.612Z,30.52
2022-10-18T05:33:51.370Z,28.55
2022-10-18T05:36:18.078Z,31.60
2022-10-18T05:38:45.528Z,29.85
2022-10-18T05:41:13.495Z,33.78
2022-10-18T05:43:40.772Z,32.17
2022-10-18T05:46:13.612Z,28.90
2022-10-18T05:48:43.513Z,33.83
2022-10-18T05:51:10.309Z,31.80
2022-10-18T05:53:38.120Z,37.90
2022-10-18T05:56:06.335Z,35.97
2022-10-18T05:58:33.273Z,36.53
2022-10-18T06:01:01.490Z,32.33
2022-10-18T06:03:30.604Z,28.35
2022-10-18T06:06:08.613Z,35.97
2022-10-18T06:08:36.501Z,33.40
2022-10-18T06:11:12.242Z,34.42
2022-10-18T06:13:43.843Z,36.20
2022-10-18T06:16:11.641Z,33.30
2022-10-18T06:18:39.007Z,31.70
2022-10-18T06:21:06.472Z,34.10
2022-10-18T06:23:33.472Z,38.50
2022-10-18T06:26:02.019Z,35.00
2022-10-18T06:28:29.868Z,34.85
2022-10-18T06:30:57.948Z,34.85
2022-10-18T06:33:25.127Z,36.25
2022-10-18T06:35:55.766Z,35.92
2022-10-18T06:38:22.597Z,36.92
2022-10-18T06:40:50.357Z,37.45
2022-10-18T06:43:20.939Z,41.78
2022-10-18T06:45:48.933Z,45.63
2022-10-18T06:48:16.360Z,44.20
2022-10-18T06:50:43.610Z,41.03
2022-10-18T06:53:10.447Z,40.80
2022-10-18T06:55:37.162Z,51.22
2022-10-18T06:58:04.056Z,43.13
2022-10-18T07:00:30.874Z,54.50
2022-10-18T07:02:58.323Z,53.45
2022-10-18T07:05:25.412Z,47.83
2022-10-18T07:07:55.686Z,45.63
2022-10-18T07:10:24.274Z,54.22
2022-10-18T07:12:53.644Z,48.25
2022-10-18T07:15:29.956Z,43.63
2022-10-18T07:17:57.123Z,41.15
2022-10-18T07:20:23.871Z,47.17
2022-10-18T07:22:50.607Z,44.38
2022-10-18T07:25:17.373Z,45.58
2022-10-18T07:27:44.095Z,49.70
2022-10-18T07:30:11.932Z,48.58
2022-10-18T07:32:38.645Z,45.88
2022-10-18T07:35:05.975Z,44.65
2022-10-18T07:37:32.979Z,50.97
2022-10-18T07:39:59.918Z,45.72
2022-10-18T07:42:26.607Z,49.67
2022-10-18T07:44:53.376Z,52.63
2022-10-18T07:47:20.125Z,47.35
2022-10-18T07:49:46.870Z,46.00
2022-10-18T07:52:13.615Z,45.60
2022-10-18T07:54:40.400Z,36.47
2022-10-18T07:57:44.040Z,37.97
2022-10-18T08:00:11.631Z,36.28
2022-10-18T08:02:38.423Z,37.00
2022-10-18T08:05:05.403Z,40.72
2022-10-18T08:07:33.557Z,35.35
2022-10-18T08:10:03.287Z,39.13
2022-10-18T08:12:30.078Z,40.75
2022-10-18T08:14:56.758Z,42.83
2022-10-18T08:17:23.582Z,40.85
2022-10-18T08:20:04.647Z,40.05
2022-10-18T08:22:37.105Z,39.90
2022-10-18T08:25:04.386Z,42.35
2022-10-18T08:27:31.454Z,40.45
2022-10-18T08:29:59.840Z,39.17
2022-10-18T08:32:29.335Z,41.20
2022-10-18T08:34:56.202Z,42.33
2022-10-18T08:37:23.162Z,41.03
2022-10-18T08:39:50.135Z,40.15
2022-10-18T08:42:19.801Z,39.85
2022-10-18T08:44:49.349Z,37.08
2022-10-18T08:47:21.819Z,36.35
2022-10-18T08:49:53.741Z,38.45
2022-10-18T08:52:49.706Z,38.05
2022-10-18T08:55:24.307Z,39.42
2022-10-18T08:57:51.897Z,37.85
2022-10-18T09:00:28.300Z,43.08
2022-10-18T09:03:21.806Z,42.40
2022-10-18T09:06:19.873Z,38.45
2022-10-18T09:08:58.199Z,40.22
2022-10-18T09:11:40.506Z,40.13
2022-10-18T09:14:30.435Z,55.65
2022-10-18T09:17:32.050Z,96.03
2022-10-18T09:20:10.730Z,45.80
2022-10-18T09:23:00.159Z,61.85
2022-10-18T09:25:41.191Z,56.22
2022-10-18T09:28:41.772Z,46.58
2022-10-18T09:31:46.325Z,48.00
2022-10-18T09:36:39.858Z,43.40
2022-10-18T09:39:14.261Z,37.60
2022-10-18T09:41:51.065Z,41.80
2022-10-18T09:44:25.706Z,44.63
2022-10-18T09:47:01.024Z,34.22
2022-10-18T09:49:36.726Z,39.70
2022-10-18T09:52:09.011Z,41.78
2022-10-18T09:55:01.206Z,38.15
2022-10-18T09:57:35.729Z,40.47
2022-10-18T10:00:05.550Z,38.85
2022-10-18T10:02:32.313Z,35.05
2022-10-18T10:04:59.126Z,36.88
2022-10-18T10:07:35.134Z,35.22
2022-10-18T10:10:23.316Z,36.33
2022-10-18T10:13:13.849Z,34.78
2022-10-18T10:15:44.859Z,36.50
2022-10-18T10:18:23.528Z,42.10
2022-10-18T10:20:56.670Z,36.80
2022-10-18T10:23:28.423Z,41.45
2022-10-18T10:26:26.093Z,41.10
2022-10-18T10:28:52.938Z,35.97
2022-10-18T10:31:29.308Z,38.30
2022-10-18T10:34:01.828Z,41.78
2022-10-18T10:36:29.514Z,31.75
2022-10-18T10:39:18.728Z,33.92
2022-10-18T10:42:00.182Z,31.00
2022-10-18T10:44:32.890Z,32.90
2022-10-18T10:49:40.943Z,31.90
2022-10-18T10:52:28.969Z,34.42
2022-10-18T10:57:47.379Z,31.20
2022-10-18T11:00:38.973Z,30.10
2022-10-18T11:03:27.818Z,25.70
2022-10-18T11:05:57.673Z,28.08
2022-10-18T11:08:27.177Z,18.08
2022-10-18T11:11:17.000Z,21.90
2022-10-18T11:14:26.612Z,17.85
2022-10-18T11:17:41.758Z,23.25
2022-10-18T11:20:24.079Z,21.05
2022-10-18T11:22:59.820Z,19.52
2022-10-18T11:25:44.969Z,20.25
2022-10-18T11:28:26.747Z,22.60
2022-10-18T11:30:59.554Z,20.50
2022-10-18T11:34:06.909Z,19.95
2022-10-18T11:37:02.284Z,17.30
2022-10-18T11:42:43.129Z,16.70
2022-10-18T11:45:15.564Z,18.70
2022-10-18T11:48:05.815Z,17.98
2022-10-18T11:51:00.148Z,17.15
2022-10-18T11:53:26.787Z,16.35
2022-10-18T11:56:21.064Z,15.27
2022-10-18T11:59:13.358Z,16.13
2022-10-18T12:02:15.410Z,16.10
2022-10-18T12:05:05.333Z,15.77
2022-10-18T12:07:46.964Z,18.88
2022-10-18T12:10:31.466Z,24.75
2022-10-18T12:13:12.612Z,23.33
2022-10-18T12:15:40.627Z,27.90
2022-10-18T12:18:19.245Z,25.17
2022-10-18T12:20:49.368Z,29.17
2022-10-18T12:23:30.145Z,28.73
2022-10-18T12:26:02.721Z,27.73
2022-10-18T12:28:41.012Z,26.92
2022-10-18T12:31:26.158Z,36.63
2022-10-18T12:33:58.385Z,28.90
2022-10-18T12:36:40.216Z,32.15
2022-10-18T12:39:12.603Z,27.35
2022-10-18T12:41:39.457Z,30.63
2022-10-18T12:44:07.263Z,40.92
2022-10-18T12:46:54.788Z,39.75
2022-10-18T12:49:32.041Z,32.80
2022-10-18T12:52:02.217Z,37.33
2022-10-18T12:54:34.496Z,35.95
2022-10-18T12:57:02.970Z,36.50
2022-10-18T12:59:29.668Z,36.10
2022-10-18T13:01:56.494Z,31.63
2022-10-18T13:04:29.489Z,30.63
2022-10-18T13:07:05.184Z,36.20
2022-10-18T13:09:37.257Z,38.92
2022-10-18T13:12:09.702Z,43.45
2022-10-18T13:15:24.110Z,39.05
2022-10-18T13:17:58.575Z,35.40
2022-10-18T13:20:38.581Z,40.92
2022-10-18T13:23:18.312Z,44.13
2022-10-18T13:26:17.156Z,41.83
2022-10-18T13:29:18.772Z,37.13
2022-10-18T13:31:59.633Z,42.85
2022-10-18T13:34:34.944Z,46.55
2022-10-18T13:37:03.484Z,41.38
2022-10-18T13:39:31.304Z,41.05
2022-10-18T13:41:58.144Z,43.50
2022-10-18T13:44:33.428Z,46.95
2022-10-18T13:47:00.102Z,47.08
2022-10-18T13:49:38.968Z,41.88
2022-10-18T13:52:36.273Z,45.97
2022-10-18T13:55:41.244Z,44.72
2022-10-18T13:58:59.367Z,45.35
2022-10-18T14:01:45.887Z,41.83
2022-10-18T14:04:38.382Z,42.75
2022-10-18T14:07:07.637Z,44.72
2022-10-18T14:09:47.178Z,45.95
2022-10-18T14:12:31.086Z,45.35
2022-10-18T14:15:21.294Z,51.30
2022-10-18T14:18:01.998Z,48.60
2022-10-18T14:21:12.456Z,49.60
2022-10-18T14:23:44.541Z,55.00
2022-10-18T14:26:16.516Z,53.28
2022-10-18T14:29:00.454Z,48.95
2022-10-18T14:31:28.023Z,51.65
2022-10-18T14:33:58.349Z,53.53
2022-10-18T14:36:36.662Z,52.05
2022-10-18T14:39:07.735Z,51.45
2022-10-18T14:41:47.315Z,48.00
2022-10-18T14:44:21.416Z,50.88
2022-10-18T14:46:57.153Z,54.70
2022-10-18T14:49:24.151Z,48.90
2022-10-18T14:51:53.520Z,49.85
2022-10-18T14:54:26.155Z,55.83
2022-10-18T14:56:56.445Z,52.50
2022-10-18T14:59:29.565Z,56.58
2022-10-18T15:02:03.196Z,60.00
2022-10-18T15:04:33.271Z,61.22
2022-10-18T15:07:06.134Z,53.95
2022-10-18T15:09:35.711Z,53.25
2022-10-18T15:12:07.170Z,53.40
2022-10-18T15:14:34.888Z,48.60
2022-10-18T15:17:20.670Z,56.80
2022-10-18T15:20:03.302Z,48.58
2022-10-18T15:22:33.405Z,55.53
2022-10-18T15:25:06.155Z,57.63
2022-10-18T15:30:22.815Z,56.75
2022-10-18T15:32:57.967Z,50.85
2022-10-18T15:35:30.980Z,59.58
2022-10-18T15:38:03.412Z,54.83
2022-10-18T15:40:30.327Z,53.30
2022-10-18T15:43:02.092Z,66.00
2022-10-18T15:45:35.744Z,59.10
2022-10-18T15:48:12.887Z,54.35
2022-10-18T15:50:46.815Z,63.72
2022-10-18T15:53:29.189Z,60.10
2022-10-18T15:56:01.244Z,57.88
2022-10-18T15:58:44.548Z,58.80
2022-10-18T16:01:38.369Z,54.65
2022-10-18T16:04:10.792Z,56.60
2022-10-18T16:06:38.729Z,54.25
2022-10-18T16:09:05.818Z,62.80
2022-10-18T16:11:32.644Z,51.45
2022-10-18T16:14:00.550Z,60.22
2022-10-18T16:16:29.209Z,55.28
2022-10-18T16:18:56.856Z,54.97
2022-10-18T16:21:28.412Z,53.92
2022-10-18T16:23:55.264Z,50.85
2022-10-18T16:26:23.411Z,50.25
2022-10-18T16:28:51.227Z,53.55
2022-10-18T16:31:24.295Z,51.13
2022-10-18T16:33:52.372Z,51.90
2022-10-18T16:36:25.940Z,66.57
2022-10-18T16:38:55.071Z,60.70
2022-10-18T16:41:22.608Z,58.47
2022-10-18T16:43:50.159Z,59.78
2022-10-18T16:46:20.178Z,63.17
2022-10-18T16:48:48.580Z,58.03
2022-10-18T16:51:15.778Z,63.10
2022-10-18T16:53:42.767Z,56.40
2022-10-18T16:56:31.271Z,58.67
2022-10-18T16:58:59.590Z,58.92
2022-10-18T17:01:26.970Z,54.33
2022-10-18T17:03:54.135Z,54.72
2022-10-18T17:06:23.860Z,55.45
2022-10-18T17:08:52.200Z,63.85
2022-10-18T17:11:20.366Z,53.08
2022-10-18T17:13:47.216Z,58.25
2022-10-18T17:19:04.566Z,52.88
2022-10-18T17:21:33.512Z,55.28
2022-10-18T17:24:04.449Z,55.38
2022-10-18T17:26:31.807Z,56.60
2022-10-18T17:29:01.555Z,52.25
2022-10-18T17:31:29.699Z,51.72
2022-10-18T17:33:58.371Z,54.85
2022-10-18T17:36:25.432Z,51.13
2022-10-18T17:38:53.472Z,49.90
2022-10-18T17:41:21.526Z,53.50
2022-10-18T17:43:48.590Z,54.90
2022-10-18T17:46:15.880Z,50.88
2022-10-18T17:48:42.876Z,55.58
2022-10-18T17:51:11.138Z,57.22
2022-10-18T17:53:38.133Z,55.65
2022-10-18T17:56:05.474Z,53.90
2022-10-18T17:58:32.405Z,55.28
2022-10-18T18:01:12.974Z,51.25
2022-10-18T18:03:42.171Z,52.13
2022-10-18T18:06:30.570Z,57.15
2022-10-18T18:09:02.712Z,54.80
2022-10-18T18:11:29.528Z,52.60
2022-10-18T18:13:56.763Z,51.63
2022-10-18T18:16:26.007Z,52.33
2022-10-18T18:18:55.788Z,52.70
2022-10-18T18:21:23.169Z,54.97
2022-10-18T18:23:52.753Z,55.38
2022-10-18T18:26:20.293Z,56.80
2022-10-18T18:28:47.342Z,54.03
2022-10-18T18:31:19.671Z,50.58
2022-10-18T18:33:46.389Z,54.85
2022-10-18T18:36:13.469Z,54.25
2022-10-18T18:38:42.736Z,52.92
2022-10-18T18:41:18.447Z,51.63
2022-10-18T18:43:50.769Z,47.50
2022-10-18T18:46:17.892Z,53.60
2022-10-18T18:48:44.626Z,54.38
2022-10-18T18:51:14.290Z,50.05
2022-10-18T18:53:42.438Z,53.97
2022-10-18T18:56:12.114Z,57.05
2022-10-18T18:58:39.792Z,49.60
2022-10-18T19:01:12.870Z,58.20
2022-10-18T19:03:40.651Z,55.00
2022-10-18T19:06:14.394Z,56.80
2022-10-18T19:08:41.767Z,50.53
2022-10-18T19:11:09.409Z,54.95
2022-10-18T19:13:36.709Z,56.40
2022-10-18T19:16:24.664Z,54.03
2022-10-18T19:19:01.862Z,55.55
2022-10-18T19:21:30.857Z,49.20
2022-10-18T19:23:58.618Z,52.10
2022-10-18T19:26:44.911Z,49.83
2022-10-18T19:29:17.777Z,50.97
2022-10-18T19:31:45.142Z,56.92
2022-10-18T19:34:13.665Z,51.55
2022-10-18T19:36:42.043Z,48.63
2022-10-18T19:39:13.912Z,49.05
2022-10-18T19:41:40.659Z,52.33
2022-10-18T19:44:07.613Z,54.97
2022-10-18T19:46:34.328Z,50.95
2022-10-18T19:49:01.058Z,53.42
2022-10-18T19:51:28.505Z,49.95
2022-10-18T19:53:56.441Z,54.20
2022-10-18T19:56:25.361Z,50.83
2022-10-18T19:58:52.219Z,50.00
2022-10-18T20:01:19.607Z,53.63
2022-10-18T20:03:47.403Z,52.47
2022-10-18T20:06:14.900Z,58.63
2022-10-18T20:11:17.254Z,59.42
2022-10-18T20:13:43.992Z,52.40
2022-10-18T20:16:12.159Z,53.53
2022-10-18T20:18:39.793Z,51.30
2022-10-18T20:21:08.034Z,58.42
2022-10-18T20:23:39.507Z,55.78
2022-10-18T20:26:08.779Z,55.70
2022-10-18T20:28:37.223Z,61.53
2022-10-18T20:31:10.550Z,61.08
2022-10-18T20:33:37.421Z,58.08
2022-10-18T20:36:07.310Z,59.17
2022-10-18T20:38:35.585Z,56.67
2022-10-18T20:41:27.167Z,58.20
2022-10-18T20:43:56.595Z,55.97
2022-10-18T20:46:23.717Z,53.15
2022-10-18T20:48:54.191Z,56.95
2022-10-18T20:51:22.066Z,59.13
2022-10-18T20:53:49.587Z,56.15
2022-10-18T20:56:22.481Z,55.58
2022-10-18T21:01:20.076Z,53.40
2022-10-18T21:03:48.706Z,51.50
2022-10-18T21:06:18.590Z,60.05
2022-10-18T21:08:45.575Z,54.10
2022-10-18T21:11:13.772Z,58.70
2022-10-18T21:13:43.285Z,55.53
2022-10-18T21:16:10.078Z,62.30
2022-10-18T21:18:40.232Z,72.57
2022-10-18T21:21:15.112Z,61.53
2022-10-18T21:23:42.848Z,57.33
2022-10-18T21:26:15.798Z,58.65
2022-10-18T21:28:42.781Z,60.63
2022-10-18T21:31:21.295Z,59.03
2022-10-18T21:33:52.045Z,59.58
2022-10-18T21:36:18.825Z,62.95
2022-10-18T21:38:45.951Z,61.42
2022-10-18T21:41:15.258Z,59.30
2022-10-18T21:43:44.567Z,57.42
2022-10-18T21:46:12.874Z,55.33
2022-10-18T21:48:43.364Z,57.10
2022-10-18T21:51:10.248Z,57.10
2022-10-18T21:53:37.340Z,55.90
2022-10-18T21:56:09.341Z,59.28
2022-10-18T21:58:36.959Z,57.80
2022-10-18T22:01:08.634Z,61.90
2022-10-18T22:03:35.975Z,63.63
2022-10-18T22:06:07.644Z,64.22
2022-10-18T22:08:34.563Z,64.00
2022-10-18T22:11:01.758Z,60.22
2022-10-18T22:13:28.638Z,60.10
2022-10-18T22:15:55.467Z,59.75
2022-10-18T22:18:22.621Z,68.80
2022-10-18T22:20:57.600Z,59.60
2022-10-18T22:23:24.565Z,60.28
2022-10-18T22:25:51.338Z,63.33
2022-10-18T22:28:18.644Z,61.72
2022-10-18T22:30:45.363Z,63.33
2022-10-18T22:33:12.085Z,61.92
2022-10-18T22:35:38.799Z,62.70
2022-10-18T22:38:05.525Z,64.55
2022-10-18T22:40:32.326Z,67.30
2022-10-18T22:42:59.058Z,57.13
2022-10-18T22:45:25.749Z,63.25
2022-10-18T22:47:52.547Z,62.13
2022-10-18T22:50:19.250Z,61.53
2022-10-18T22:52:46.095Z,61.80
2022-10-18T22:55:12.841Z,59.83
2022-10-18T22:57:39.658Z,58.33
2022-10-18T23:00:07.026Z,57.72
2022-10-18T23:02:34.074Z,62.92
2022-10-18T23:05:01.014Z,63.78
2022-10-18T23:07:27.776Z,69.10
2022-10-18T23:09:54.602Z,62.22
2022-10-18T23:12:21.374Z,63.80
2022-10-18T23:14:48.258Z,61.72
2022-10-18T23:17:14.939Z,63.40
2022-10-18T23:19:41.711Z,61.00
2022-10-18T23:22:08.407Z,62.10
2022-10-18T23:24:35.139Z,66.60
2022-10-18T23:27:01.871Z,66.85
2022-10-18T23:29:28.636Z,66.47
2022-10-18T23:31:55.375Z,65.78
2022-10-18T23:34:22.064Z,60.90
2022-10-18T23:36:48.800Z,60.00
2022-10-18T23:39:15.520Z,66.07
2022-10-18T23:41:42.247Z,64.68
2022-10-18T23:44:10.861Z,65.70
2022-10-18T23:46:37.731Z,62.30
2022-10-18T23:49:04.555Z,61.67
2022-10-18T23:51:31.383Z,58.45
2022-10-18T23:53:58.105Z,61.60
2022-10-18T23:56:24.836Z,61.58
2022-10-18T23:58:51.568Z,60.10
